Time;durP1;ratioP1;P1;durP2;ratioP2;P2;SDS_P1;SDS_P2;PMS_P1;PMS_P2;Temp;Humidity;BMP_temperature;BMP_pressure;BME280_temperature;BME280_humidity;BME280_pressure;Samples;Min_cycle;Max_cycle;Signal;HPM_P1;HPM_P2
2021/12/28 00:00:12;;;;;;;16.20;10.98;;;;;;;1.53;100.00;99333.88;5049595;28;20045;-88
2021/12/28 00:02:40;;;;;;;14.68;10.23;;;;;;;1.58;100.00;99341.66;5029449;28;20056;-86
2021/12/28 00:05:09;;;;;;;15.55;11.15;;;;;;;1.63;100.00;99338.25;5043753;28;20133;-87
2021/12/28 00:07:35;;;;;;;15.00;9.63;;;;;;;1.69;100.00;99331.41;5027864;28;20126;-87
2021/12/28 00:10:02;;;;;;;17.23;10.80;;;;;;;1.77;100.00;99340.91;5017950;28;20140;-87
2021/12/28 00:12:31;;;;;;;14.63;10.18;;;;;;;1.83;100.00;99334.91;5032955;28;20040;-87
2021/12/28 00:15:05;;;;;;;18.05;10.50;;;;;;;1.90;100.00;99331.47;5031469;28;20044;-86
2021/12/28 00:20:16;;;;;;;12.80;9.13;;;;;;;1.98;100.00;99327.25;5044672;28;20838;-87
2021/12/28 00:22:43;;;;;;;15.00;11.13;;;;;;;2.00;100.00;99326.41;5048201;28;20037;-88
2021/12/28 00:25:11;;;;;;;13.77;9.93;;;;;;;2.02;100.00;99322.09;5045689;28;20049;-87
2021/12/28 00:27:38;;;;;;;13.55;10.05;;;;;;;2.02;100.00;99315.22;5051156;28;20051;-87
2021/12/28 00:30:07;;;;;;;14.45;10.95;;;;;;;2.04;100.00;99312.63;5020324;28;20052;-87
2021/12/28 00:32:36;;;;;;;15.70;10.95;;;;;;;2.05;100.00;99310.06;5043593;28;20048;-87
2021/12/28 00:35:04;;;;;;;17.27;10.50;;;;;;;2.06;100.00;99303.16;5017204;28;20044;-88
2021/12/28 00:37:31;;;;;;;15.10;10.00;;;;;;;2.08;100.00;99296.31;5026994;28;20094;-87
2021/12/28 00:39:58;;;;;;;17.52;12.20;;;;;;;2.10;100.00;99302.31;5014459;28;20053;-87
2021/12/28 00:42:25;;;;;;;15.00;10.15;;;;;;;2.12;100.00;99306.63;5028943;28;20040;-87
2021/12/28 00:44:51;;;;;;;12.80;9.52;;;;;;;2.15;100.00;99296.34;5041798;28;20045;-87
2021/12/28 00:47:18;;;;;;;15.63;9.90;;;;;;;2.17;100.00;99288.59;5014635;28;20118;-87
2021/12/28 00:49:44;;;;;;;13.55;10.43;;;;;;;2.22;100.00;99286.03;5031816;28;20132;-87
2021/12/28 00:52:11;;;;;;;15.05;10.02;;;;;;;2.24;100.00;99285.19;5014825;28;20053;-87
2021/12/28 00:54:38;;;;;;;14.23;10.07;;;;;;;2.24;100.00;99272.28;5031459;28;20052;-87
2021/12/28 00:57:05;;;;;;;13.55;9.63;;;;;;;2.27;100.00;99267.09;5024480;28;20179;-87
2021/12/28 00:59:31;;;;;;;16.92;11.02;;;;;;;2.28;100.00;99278.28;5033231;28;20139;-87
2021/12/28 01:01:58;;;;;;;16.35;10.45;;;;;;;2.31;100.00;99268.81;5043372;28;20045;-87
2021/12/28 01:04:25;;;;;;;13.50;9.85;;;;;;;2.33;100.00;99265.38;5049989;28;20481;-87
2021/12/28 01:06:56;;;;;;;15.15;10.75;;;;;;;2.36;100.00;99268.84;5047902;28;20048;-86
2021/12/28 01:09:29;;;;;;;18.30;12.43;;;;;;;2.40;100.00;99262.81;5049807;28;20056;-87
2021/12/28 01:11:56;;;;;;;20.17;11.37;;;;;;;2.43;100.00;99260.25;5041781;28;20041;-88
2021/12/28 01:14:23;;;;;;;14.48;9.73;;;;;;;2.44;100.00;99261.97;5042141;28;20295;-87
2021/12/28 01:16:49;;;;;;;14.18;10.60;;;;;;;2.48;100.00;99252.50;5030900;28;20052;-87
2021/12/28 01:19:16;;;;;;;18.77;12.27;;;;;;;2.50;100.00;99250.78;5027535;28;21900;-88
2021/12/28 01:21:43;;;;;;;13.82;11.32;;;;;;;2.53;100.00;99261.13;5030517;28;20055;-87
2021/12/28 01:24:09;;;;;;;14.20;9.68;;;;;;;2.55;100.00;99254.22;5050329;28;20727;-88
2021/12/28 01:26:36;;;;;;;12.48;9.63;;;;;;;2.57;100.00;99249.94;5041945;28;20051;-87
2021/12/28 01:29:04;;;;;;;12.40;9.88;;;;;;;2.59;100.00;99255.94;5031207;28;20056;-87
2021/12/28 01:31:31;;;;;;;14.68;10.13;;;;;;;2.60;100.00;99262.00;5034397;28;20053;-87
2021/12/28 01:33:58;;;;;;;15.45;10.70;;;;;;;2.61;100.00;99256.81;5047849;28;20063;-88
2021/12/28 01:36:24;;;;;;;12.18;9.77;;;;;;;2.62;100.00;99255.97;5025180;28;20131;-87
2021/12/28 01:38:51;;;;;;;12.20;9.57;;;;;;;2.63;100.00;99259.41;5026817;28;20121;-87
2021/12/28 01:41:18;;;;;;;14.90;9.55;;;;;;;2.64;100.00;99254.22;5033002;28;20052;-89
2021/12/28 01:43:44;;;;;;;15.10;10.57;;;;;;;2.64;100.00;99253.38;5026200;28;20064;-87
2021/12/28 01:46:11;;;;;;;14.45;10.57;;;;;;;2.62;100.00;99249.91;5048171;28;20060;-86
2021/12/28 01:48:42;;;;;;;16.55;9.85;;;;;;;2.58;100.00;99243.03;5049561;28;20036;-88
2021/12/28 01:51:17;;;;;;;14.27;9.95;;;;;;;2.53;100.00;99248.22;5029845;28;20115;-87
2021/12/28 01:53:46;;;;;;;13.55;9.70;;;;;;;2.51;100.00;99237.00;5036711;28;20033;-88
2021/12/28 01:56:22;;;;;;;14.50;9.38;;;;;;;2.45;100.00;99226.66;5030785;28;20143;-88
2021/12/28 01:58:50;;;;;;;14.93;10.88;;;;;;;2.38;100.00;99236.13;5032157;28;20063;-87
2021/12/28 02:01:18;;;;;;;16.85;11.15;;;;;;;2.33;100.00;99227.50;5026565;28;20058;-87
2021/12/28 02:03:46;;;;;;;15.10;10.27;;;;;;;2.30;100.00;99230.94;5029040;28;20469;-88
2021/12/28 02:06:14;;;;;;;13.98;9.77;;;;;;;2.31;100.00;99226.66;5049097;28;20050;-88
2021/12/28 02:08:42;;;;;;;17.08;10.77;;;;;;;2.39;100.00;99235.28;5023344;28;20044;-87
2021/12/28 02:11:12;;;;;;;15.45;9.77;;;;;;;2.48;100.00;99244.75;5014621;28;20044;-87
2021/12/28 02:13:40;;;;;;;13.55;10.27;;;;;;;2.56;100.00;99245.63;5028562;28;20111;-87
2021/12/28 02:16:07;;;;;;;13.25;9.40;;;;;;;2.61;100.00;99241.31;5031140;28;20048;-87
2021/12/28 02:18:35;;;;;;;14.00;9.77;;;;;;;2.66;100.00;99236.16;5049362;28;20037;-88
2021/12/28 02:21:06;;;;;;;14.18;9.60;;;;;;;2.71;100.00;99230.97;5049396;28;20045;-87
2021/12/28 02:23:33;;;;;;;16.17;9.93;;;;;;;2.73;100.00;99237.88;5015622;28;20049;-87
2021/12/28 02:26:00;;;;;;;16.52;10.35;;;;;;;2.77;100.00;99241.31;5026064;28;20509;-87
2021/12/28 02:28:26;;;;;;;12.10;8.73;;;;;;;2.79;100.00;99234.41;5030208;28;21397;-88
2021/12/28 02:30:56;;;;;;;14.35;8.93;;;;;;;2.81;100.00;99241.31;5046396;28;20382;-88
2021/12/28 02:33:25;;;;;;;11.38;8.95;;;;;;;2.85;100.00;99237.00;5024158;28;20060;-86
2021/12/28 02:35:53;;;;;;;12.25;8.88;;;;;;;2.87;100.00;99232.72;5047794;28;20053;-88
2021/12/28 02:38:21;;;;;;;13.63;8.85;;;;;;;2.92;100.00;99237.84;5024426;28;20835;-87
2021/12/28 02:40:48;;;;;;;10.85;8.77;;;;;;;2.93;100.00;99230.13;5019512;28;20040;-88
2021/12/28 02:43:17;;;;;;;13.50;8.70;;;;;;;2.96;100.00;99230.13;5033328;28;20503;-88
2021/12/28 02:45:54;;;;;;;12.63;8.73;;;;;;;2.99;100.00;99221.50;5025687;28;20071;-87
2021/12/28 02:48:22;;;;;;;13.73;10.07;;;;;;;3.01;100.00;99219.75;5015723;28;20530;-88
2021/12/28 02:50:54;;;;;;;11.80;9.77;;;;;;;3.04;100.00;99221.47;5027777;28;20045;-86
2021/12/28 02:53:21;;;;;;;13.77;8.85;;;;;;;3.05;100.00;99216.31;5014746;28;20048;-88
2021/12/28 02:55:50;;;;;;;13.75;9.98;;;;;;;3.05;100.00;99212.84;5029912;28;20049;-88
2021/12/28 02:58:32;;;;;;;13.05;8.77;;;;;;;3.01;100.00;99212.00;5047269;28;20048;-88
2021/12/28 03:01:35;;;;;;;12.40;9.57;;;;;;;3.02;100.00;99205.13;5035072;28;20044;-87
2021/12/28 03:04:05;;;;;;;11.88;7.80;;;;;;;2.99;100.00;99200.81;5031603;28;20048;-88
2021/12/28 03:06:34;;;;;;;9.90;8.10;;;;;;;2.97;100.00;99203.41;5015361;28;20062;-88
2021/12/28 03:09:04;;;;;;;11.98;8.90;;;;;;;2.95;100.00;99204.28;5009332;28;20063;-87
2021/12/28 03:11:31;;;;;;;12.65;8.82;;;;;;;2.95;100.00;99194.78;5022558;28;20072;-87
2021/12/28 03:14:02;;;;;;;13.75;8.82;;;;;;;2.95;100.00;99191.34;5029790;28;20506;-87
2021/12/28 03:16:32;;;;;;;12.88;9.35;;;;;;;2.94;100.00;99187.03;5046004;28;20045;-88
2021/12/28 03:18:58;;;;;;;11.52;7.68;;;;;;;2.95;100.00;99188.75;5029811;28;20052;-87
2021/12/28 03:21:26;;;;;;;13.80;9.23;;;;;;;2.94;100.00;99185.31;5022909;28;22624;-87
2021/12/28 03:23:54;;;;;;;11.60;8.23;;;;;;;2.94;100.00;99180.13;5015430;28;20059;-86
2021/12/28 03:26:21;;;;;;;14.52;10.23;;;;;;;2.97;100.00;99176.69;5028024;28;20072;-87
2021/12/28 03:28:49;;;;;;;12.70;9.43;;;;;;;2.98;100.00;99170.66;5013923;28;20075;-87
2021/12/28 03:31:18;;;;;;;10.02;8.20;;;;;;;2.98;100.00;99161.16;5031021;28;20041;-88
2021/12/28 03:33:48;;;;;;;11.80;8.07;;;;;;;3.00;100.00;99161.19;5023957;28;20060;-87
2021/12/28 03:36:17;;;;;;;15.95;11.77;;;;;;;3.03;100.00;99157.72;5054071;28;20136;-88
2021/12/28 03:38:46;;;;;;;12.70;8.95;;;;;;;3.05;100.00;99161.16;5041351;28;21005;-87
2021/12/28 03:41:17;;;;;;;8.60;7.22;;;;;;;3.09;100.00;99148.22;5016087;28;20040;-88
2021/12/28 03:43:49;;;;;;;13.55;9.48;;;;;;;3.10;100.00;99152.53;5025767;28;20333;-87
2021/12/28 03:46:16;;;;;;;11.80;8.40;;;;;;;3.14;100.00;99143.91;5012976;28;20045;-87
2021/12/28 03:48:45;;;;;;;9.60;7.78;;;;;;;3.17;100.00;99142.16;5016698;28;20057;-87
2021/12/28 03:51:13;;;;;;;11.45;8.75;;;;;;;3.18;100.00;99141.31;5044019;28;20048;-88
2021/12/28 03:53:40;;;;;;;11.55;7.75;;;;;;;3.18;100.00;99137.00;5015222;28;20040;-87
2021/12/28 03:56:09;;;;;;;10.07;7.82;;;;;;;3.18;100.00;99133.53;5023759;28;20049;-87
2021/12/28 03:58:41;;;;;;;12.73;8.15;;;;;;;3.19;100.00;99132.69;5029447;28;20427;-87
2021/12/28 04:01:11;;;;;;;11.02;7.60;;;;;;;3.20;100.00;99130.09;5035290;28;20064;-88
2021/12/28 04:03:38;;;;;;;8.48;7.43;;;;;;;3.22;100.00;99130.94;5026465;28;21471;-87
2021/12/28 04:06:08;;;;;;;8.98;7.07;;;;;;;3.22;100.00;99128.38;5028293;28;20131;-87
2021/12/28 04:08:36;;;;;;;9.75;7.30;;;;;;;3.24;100.00;99128.34;5040530;28;20041;-88
2021/12/28 04:11:14;;;;;;;10.20;7.82;;;;;;;3.25;100.00;99132.66;5018159;28;20056;-88
2021/12/28 04:13:44;;;;;;;9.07;7.13;;;;;;;3.25;100.00;99118.00;5015355;28;20119;-88
2021/12/28 04:16:12;;;;;;;12.23;7.82;;;;;;;3.26;100.00;99118.84;5013551;28;20052;-87
2021/12/28 04:18:39;;;;;;;10.73;7.35;;;;;;;3.28;100.00;99111.94;5027546;28;20511;-88
2021/12/28 04:21:06;;;;;;;7.93;7.18;;;;;;;3.29;100.00;99111.94;5030853;28;20076;-87
2021/12/28 04:23:32;;;;;;;9.13;7.03;;;;;;;3.31;100.00;99110.22;5028024;28;20044;-88
2021/12/28 04:25:59;;;;;;;7.72;6.63;;;;;;;3.32;100.00;99111.06;5010470;28;20057;-87
2021/12/28 04:28:29;;;;;;;10.38;7.57;;;;;;;3.35;100.00;99120.53;5012988;28;20527;-87
2021/12/28 04:30:56;;;;;;;8.77;6.95;;;;;;;3.35;100.00;99123.13;5036269;28;20102;-88
2021/12/28 04:33:23;;;;;;;9.10;6.97;;;;;;;3.36;100.00;99127.44;5015087;28;20052;-88
2021/12/28 04:35:50;;;;;;;9.45;6.05;;;;;;;3.37;100.00;99132.59;5051226;28;20048;-87
2021/12/28 04:38:17;;;;;;;8.52;6.55;;;;;;;3.38;100.00;99126.56;5029568;28;20049;-87
2021/12/28 04:40:44;;;;;;;9.05;7.18;;;;;;;3.38;100.00;99123.13;5039896;28;20045;-88
2021/12/28 04:43:13;;;;;;;8.20;6.25;;;;;;;3.38;100.00;99123.13;5017259;28;20076;-88
2021/12/28 04:45:40;;;;;;;9.32;6.75;;;;;;;3.37;100.00;99119.66;5030119;28;20048;-88
2021/12/28 04:48:09;;;;;;;10.27;7.55;;;;;;;3.36;100.00;99117.09;5034331;28;20135;-88
2021/12/28 04:50:39;;;;;;;9.75;7.50;;;;;;;3.37;100.00;99113.66;5031263;28;20056;-87
2021/12/28 04:53:09;;;;;;;10.40;7.07;;;;;;;3.36;100.00;99115.34;5051601;28;20048;-87
2021/12/28 04:55:39;;;;;;;8.35;6.75;;;;;;;3.37;100.00;99105.88;5051563;28;20048;-87
2021/12/28 04:58:06;;;;;;;7.65;6.13;;;;;;;3.36;100.00;99102.41;5026354;28;20045;-88
2021/12/28 05:00:33;;;;;;;9.25;7.22;;;;;;;3.37;100.00;99095.53;5036148;28;20048;-87
2021/12/28 05:03:00;;;;;;;8.68;6.88;;;;;;;3.39;100.00;99096.38;5028642;28;20045;-88
2021/12/28 05:05:27;;;;;;;10.10;7.38;;;;;;;3.40;100.00;99095.50;5032911;28;20044;-88
2021/12/28 05:07:54;;;;;;;11.07;6.78;;;;;;;3.41;100.00;99097.25;5022672;28;20117;-87
2021/12/28 05:10:22;;;;;;;8.63;6.47;;;;;;;3.41;100.00;99092.06;5029500;28;20049;-87
2021/12/28 05:12:50;;;;;;;8.63;6.97;;;;;;;3.42;100.00;99088.63;5021936;28;20068;-87
2021/12/28 05:15:18;;;;;;;11.55;7.15;;;;;;;3.43;100.00;99088.59;5036305;28;20146;-87
2021/12/28 05:17:45;;;;;;;8.90;7.63;;;;;;;3.44;100.00;99084.28;5033322;28;20044;-86
2021/12/28 05:20:16;;;;;;;8.75;7.05;;;;;;;3.47;100.00;99076.53;5014304;28;20048;-87
2021/12/28 05:22:42;;;;;;;9.48;7.45;;;;;;;3.48;100.00;99079.09;5033433;28;20057;-88
2021/12/28 05:25:10;;;;;;;10.20;7.53;;;;;;;3.50;100.00;99078.22;5018241;28;20149;-88
2021/12/28 05:27:36;;;;;;;9.23;7.65;;;;;;;3.51;100.00;99073.03;5028212;28;20646;-88
2021/12/28 05:30:07;;;;;;;10.65;7.97;;;;;;;3.54;100.00;99073.00;5032961;28;20086;-88
2021/12/28 05:32:34;;;;;;;11.95;7.88;;;;;;;3.56;100.00;99073.88;5045806;28;20044;-88
2021/12/28 05:35:02;;;;;;;10.32;8.35;;;;;;;3.57;100.00;99073.03;5020405;28;20045;-87
2021/12/28 05:37:28;;;;;;;11.68;9.07;;;;;;;3.57;100.00;99067.84;5047954;28;20079;-87
2021/12/28 05:39:55;;;;;;;11.75;9.05;;;;;;;3.60;100.00;99066.97;5026410;28;20110;-89
2021/12/28 05:42:22;;;;;;;11.80;7.60;;;;;;;3.61;100.00;99066.06;5048630;28;20075;-87
2021/12/28 05:44:49;;;;;;;10.07;6.95;;;;;;;3.62;100.00;99067.78;5008337;28;20044;-88
2021/12/28 05:47:16;;;;;;;9.43;8.02;;;;;;;3.61;100.00;99061.78;5049578;28;20125;-88
2021/12/28 05:49:43;;;;;;;10.93;7.72;;;;;;;3.61;100.00;99058.31;5031827;28;20493;-88
2021/12/28 05:52:10;;;;;;;10.48;7.70;;;;;;;3.62;100.00;99062.63;5016241;28;20513;-89
2021/12/28 05:54:37;;;;;;;11.73;8.45;;;;;;;3.60;100.00;99051.44;5049113;28;20054;-88
2021/12/28 05:57:04;;;;;;;12.30;8.07;;;;;;;3.62;100.00;99066.09;5026461;28;20474;-86
2021/12/28 05:59:31;;;;;;;12.52;8.52;;;;;;;3.61;100.00;99064.38;5033932;28;20297;-88
2021/12/28 06:01:58;;;;;;;13.38;9.18;;;;;;;3.61;100.00;99061.78;5017135;28;20076;-88
2021/12/28 06:04:24;;;;;;;12.82;8.45;;;;;;;3.62;100.00;99067.78;5015822;28;20028;-88
2021/12/28 06:06:51;;;;;;;10.35;7.97;;;;;;;3.61;100.00;99059.19;5016267;28;20058;-88
2021/12/28 06:09:18;;;;;;;12.93;7.93;;;;;;;3.59;100.00;99044.53;5027991;28;20047;-87
2021/12/28 06:11:44;;;;;;;12.50;8.45;;;;;;;3.56;100.00;99052.31;5031766;28;20047;-88
2021/12/28 06:14:11;;;;;;;13.07;9.07;;;;;;;3.51;100.00;99042.00;5047882;28;20048;-88
2021/12/28 06:16:38;;;;;;;10.90;7.30;;;;;;;3.46;100.00;99036.84;5013241;28;20054;-89
2021/12/28 06:19:06;;;;;;;11.98;8.35;;;;;;;3.40;100.00;99030.84;5032840;28;20138;-88
2021/12/28 06:21:35;;;;;;;13.15;8.70;;;;;;;3.36;100.00;99032.59;5028222;28;20040;-88
2021/12/28 06:24:03;;;;;;;15.38;8.32;;;;;;;3.33;100.00;99024.84;5022869;28;20534;-87
2021/12/28 06:26:31;;;;;;;14.15;8.45;;;;;;;3.28;100.00;99030.03;5048507;28;20114;-88
2021/12/28 06:28:58;;;;;;;10.52;8.25;;;;;;;3.20;100.00;99037.00;5027976;28;20066;-88
2021/12/28 06:31:28;;;;;;;13.43;8.68;;;;;;;3.14;100.00;99029.25;5031942;28;20072;-87
2021/12/28 06:34:03;;;;;;;12.73;8.68;;;;;;;3.10;100.00;99027.56;5013264;28;20059;-87
2021/12/28 06:36:30;;;;;;;12.50;9.43;;;;;;;3.07;100.00;99031.03;5034157;28;20130;-86
2021/12/28 06:38:58;;;;;;;16.08;9.85;;;;;;;3.06;100.00;99018.94;5041324;28;20179;-88
2021/12/28 06:41:25;;;;;;;14.90;9.40;;;;;;;3.00;100.00;99012.94;5016207;28;20071;-88
2021/12/28 06:43:52;;;;;;;15.77;9.27;;;;;;;2.95;100.00;99015.56;5027504;28;20072;-88
2021/12/28 06:46:18;;;;;;;14.43;8.90;;;;;;;2.91;100.00;99024.22;5029442;28;20050;-87
2021/12/28 06:48:45;;;;;;;17.30;10.18;;;;;;;2.87;100.00;99025.06;5032477;28;20075;-86
2021/12/28 06:51:12;;;;;;;15.00;9.38;;;;;;;2.86;100.00;99029.38;5026754;28;20110;-87
2021/12/28 06:53:40;;;;;;;18.77;9.32;;;;;;;2.86;100.00;99029.38;5029844;28;20052;-88
2021/12/28 06:56:07;;;;;;;12.10;9.60;;;;;;;2.86;100.00;99025.97;5014658;28;20076;-88
2021/12/28 06:58:33;;;;;;;14.55;9.60;;;;;;;2.88;100.00;99035.44;5009735;28;20053;-87
2021/12/28 07:01:00;;;;;;;17.77;10.43;;;;;;;2.90;100.00;99033.69;5009548;28;20530;-87
2021/12/28 07:03:27;;;;;;;16.23;10.35;;;;;;;2.91;100.00;99035.41;5012042;28;20163;-88
2021/12/28 07:05:53;;;;;;;18.42;10.85;;;;;;;2.92;100.00;99038.84;5014743;28;20598;-87
2021/12/28 07:08:20;;;;;;;16.67;11.20;;;;;;;2.91;100.00;99035.41;5020157;28;20484;-88
2021/12/28 07:10:47;;;;;;;12.63;8.90;;;;;;;2.90;100.00;99032.84;5010201;28;20193;-87
2021/12/28 07:13:14;;;;;;;16.48;9.90;;;;;;;2.88;100.00;99034.53;5030415;28;20048;-87
2021/12/28 07:15:40;;;;;;;17.00;10.52;;;;;;;2.83;100.00;99031.13;5020123;28;20075;-87
2021/12/28 07:18:07;;;;;;;16.33;10.32;;;;;;;2.80;100.00;99027.69;5015982;28;20135;-87
2021/12/28 07:20:34;;;;;;;21.90;10.73;;;;;;;2.77;100.00;99025.09;5017558;28;20072;-87
2021/12/28 07:23:02;;;;;;;16.20;9.73;;;;;;;2.76;100.00;99033.72;5028609;28;20400;-87
2021/12/28 07:25:29;;;;;;;15.68;10.57;;;;;;;2.75;100.00;99029.44;5031169;28;20102;-88
2021/12/28 07:27:56;;;;;;;14.50;9.95;;;;;;;2.77;100.00;99029.44;5025992;28;20057;-87
2021/12/28 07:30:23;;;;;;;16.50;10.98;;;;;;;2.80;100.00;99035.44;5046099;28;20081;-87
2021/12/28 07:32:50;;;;;;;16.63;9.80;;;;;;;2.88;100.00;99032.84;5027935;28;20058;-87
2021/12/28 07:35:16;;;;;;;22.27;10.68;;;;;;;2.98;100.00;99031.06;5009220;28;20447;-88
2021/12/28 07:37:43;;;;;;;16.38;10.20;;;;;;;3.04;100.00;99023.28;5011893;28;20106;-86
2021/12/28 07:40:11;;;;;;;19.45;10.50;;;;;;;3.08;100.00;99026.72;5037449;28;20508;-87
2021/12/28 07:42:39;;;;;;;13.27;9.32;;;;;;;3.08;100.00;99017.22;5013006;28;20049;-87
2021/12/28 07:45:10;;;;;;;18.17;10.32;;;;;;;3.11;100.00;99019.78;5024928;28;20049;-87
2021/12/28 07:47:38;;;;;;;21.95;9.75;;;;;;;3.17;100.00;99015.44;5028457;28;20080;-88
2021/12/28 07:50:07;;;;;;;17.70;10.30;;;;;;;3.24;100.00;99012.81;5010768;28;20041;-87
2021/12/28 07:52:35;;;;;;;14.73;9.63;;;;;;;3.30;100.00;99014.53;5007228;28;20052;-86
2021/12/28 07:55:07;;;;;;;19.17;8.98;;;;;;;3.39;100.00;99018.78;5011150;28;20049;-88
2021/12/28 07:57:35;;;;;;;22.70;10.65;;;;;;;3.45;100.00;99014.41;5019629;28;20045;-87
2021/12/28 08:00:07;;;;;;;17.88;10.18;;;;;;;3.53;100.00;99016.13;5015339;28;20054;-87
2021/12/28 08:02:34;;;;;;;21.90;10.60;;;;;;;3.61;100.00;99012.63;5014093;28;20052;-87
2021/12/28 08:05:00;;;;;;;13.95;8.80;;;;;;;3.69;100.00;99012.56;5023337;28;20518;-88
2021/12/28 08:07:27;;;;;;;20.90;10.10;;;;;;;3.76;100.00;99016.81;5031076;28;20057;-87
2021/12/28 08:09:54;;;;;;;19.00;9.02;;;;;;;3.81;100.00;99015.03;5030239;28;20828;-88
2021/12/28 08:12:21;;;;;;;21.88;9.75;;;;;;;3.86;100.00;99011.53;5047154;28;20041;-87
2021/12/28 08:14:49;;;;;;;11.07;7.82;;;;;;;3.88;100.00;99002.06;5032413;28;20045;-87
2021/12/28 08:17:16;;;;;;;14.38;8.60;;;;;;;3.88;100.00;98997.72;5022871;28;20550;-88
2021/12/28 08:19:42;;;;;;;16.63;8.50;;;;;;;3.87;100.00;98997.75;5014290;28;21073;-88
2021/12/28 08:22:09;;;;;;;20.48;9.10;;;;;;;3.87;100.00;99008.97;5015852;28;20041;-88
2021/12/28 08:24:36;;;;;;;15.05;8.05;;;;;;;3.89;100.00;99006.38;5030576;28;20055;-87
2021/12/28 08:27:03;;;;;;;14.18;8.35;;;;;;;3.90;100.00;99006.34;5046630;28;20059;-88
2021/12/28 08:29:29;;;;;;;27.48;12.15;;;;;;;3.93;100.00;98995.94;5041908;28;20064;-87
2021/12/28 08:31:56;;;;;;;17.05;10.23;;;;;;;3.95;100.00;98985.56;5014788;28;20045;-87
2021/12/28 08:34:22;;;;;;;12.95;7.90;;;;;;;3.96;100.00;98985.59;5024442;28;20123;-88
2021/12/28 08:36:49;;;;;;;11.50;7.35;;;;;;;3.96;100.00;98985.59;5015909;28;20444;-88
2021/12/28 08:39:16;;;;;;;13.18;9.00;;;;;;;3.97;100.00;98986.44;5016673;28;20055;-87
2021/12/28 08:41:43;;;;;;;14.70;8.50;;;;;;;3.98;100.00;98986.41;5013748;28;20398;-88
2021/12/28 08:44:10;;;;;;;12.73;7.90;;;;;;;4.00;100.00;98988.97;5047228;28;20055;-87
2021/12/28 08:46:37;;;;;;;14.30;7.78;;;;;;;4.01;100.00;98987.28;5026979;28;20408;-87
2021/12/28 08:49:05;;;;;;;22.63;9.73;;;;;;;4.05;100.00;98989.81;5012058;28;20806;-87
2021/12/28 08:51:31;;;;;;;19.52;9.75;;;;;;;4.09;100.00;98988.94;5029287;28;20049;-87
2021/12/28 08:53:58;;;;;;;14.48;7.78;;;;;;;4.14;100.00;98986.28;5031728;28;20305;-88
2021/12/28 08:56:25;;;;;;;15.00;8.48;;;;;;;4.20;100.00;98977.56;5020575;28;22028;-87
2021/12/28 08:58:51;;;;;;;12.93;7.78;;;;;;;4.28;100.00;98976.63;5042501;28;20140;-89
2021/12/28 09:01:18;;;;;;;21.05;8.45;;;;;;;4.39;100.00;98980.84;5031548;28;20099;-87
2021/12/28 09:03:45;;;;;;;17.55;8.25;;;;;;;4.49;100.00;98972.09;5043582;28;20045;-88
2021/12/28 09:06:12;;;;;;;13.05;7.13;;;;;;;4.56;100.00;98968.56;5031020;28;20045;-88
2021/12/28 09:08:38;;;;;;;10.38;6.57;;;;;;;4.57;100.00;98959.91;5030969;28;20057;-87
2021/12/28 09:11:05;;;;;;;17.40;7.20;;;;;;;4.52;100.00;98969.47;5008589;28;20060;-87
2021/12/28 09:13:31;;;;;;;17.90;6.85;;;;;;;4.48;100.00;98960.00;5046154;28;20072;-87
2021/12/28 09:15:58;;;;;;;12.85;7.68;;;;;;;4.46;100.00;98964.38;5009394;28;20608;-87
2021/12/28 09:18:25;;;;;;;14.63;7.75;;;;;;;4.48;100.00;98954.84;5031059;28;20088;-89
2021/12/28 09:20:51;;;;;;;12.73;6.95;;;;;;;4.51;100.00;98952.22;5020591;28;20064;-88
2021/12/28 09:23:18;;;;;;;16.80;6.72;;;;;;;4.54;100.00;98949.59;5043026;28;20050;-88
2021/12/28 09:25:45;;;;;;;17.23;7.65;;;;;;;4.58;100.00;98956.44;5035465;28;20064;-88
2021/12/28 09:28:11;;;;;;;14.45;6.53;;;;;;;4.68;100.00;98956.31;5031910;28;20049;-88
2021/12/28 09:30:42;;;;;;;13.55;6.75;;;;;;;4.79;100.00;98952.72;5033871;28;20053;-88
2021/12/28 09:33:11;;;;;;;10.40;6.38;;;;;;;4.93;100.00;98946.53;5011275;28;20511;-88
2021/12/28 09:35:39;;;;;;;9.93;6.55;;;;;;;5.06;100.00;98945.47;5009766;28;20866;-88
2021/12/28 09:38:06;;;;;;;15.43;6.18;;;;;;;5.16;100.00;98935.78;4996830;28;20116;-87
2021/12/28 09:40:34;;;;;;;10.80;6.10;;;;;;;5.26;100.00;98939.13;5025206;28;20056;-88
2021/12/28 09:43:06;;;;;;;14.07;5.47;;;;;;;5.31;100.00;98937.31;5012522;28;20056;-88
2021/12/28 09:45:33;;;;;;;9.43;5.18;;;;;;;5.32;100.00;98936.44;5011836;28;20054;-88
2021/12/28 09:48:00;;;;;;;18.05;7.47;;;;;;;5.21;100.00;98938.34;5007651;28;20055;-88
2021/12/28 09:50:31;;;;;;;10.88;5.72;;;;;;;5.15;100.00;98931.50;5011382;28;20399;-87
2021/12/28 09:52:59;;;;;;;7.00;5.57;;;;;;;5.02;100.00;98936.00;5012594;28;20086;-88
2021/12/28 09:55:27;;;;;;;12.00;6.70;;;;;;;4.94;100.00;98948.22;5027534;28;20044;-88
2021/12/28 09:57:54;;;;;;;10.68;5.50;;;;;;;4.91;100.00;98951.69;4996669;28;20564;-87
2021/12/28 10:00:23;;;;;;;8.10;6.00;;;;;;;4.86;100.00;98939.69;4995356;28;20049;-87
2021/12/28 10:02:51;;;;;;;13.43;4.90;;;;;;;4.82;100.00;98928.50;4997221;28;20136;-88
2021/12/28 10:05:23;;;;;;;15.20;6.13;;;;;;;4.81;100.00;98919.03;5012781;28;20074;-88
2021/12/28 10:07:56;;;;;;;9.57;5.18;;;;;;;4.89;100.00;98922.34;5002716;28;20063;-88
2021/12/28 10:10:25;;;;;;;;;;;;;;;5.01;100.00;98917.88;5007289;28;20052;-88
2021/12/28 10:13:00;;;;;;;10.02;5.25;;;;;;;5.18;100.00;98909.84;5016370;28;20060;-88
2021/12/28 10:15:32;;;;;;;10.52;5.15;;;;;;;5.37;100.00;98905.22;5005611;28;20056;-87
2021/12/28 10:18:05;;;;;;;6.88;4.68;;;;;;;5.54;100.00;98907.53;5029572;28;20045;-88
2021/12/28 10:20:58;;;;;;;7.85;5.00;;;;;;;5.65;100.00;98897.84;5002883;28;20513;-87
2021/12/28 10:23:30;;;;;;;10.77;6.40;;;;;;;5.77;100.00;98900.22;5011421;28;22675;-88
2021/12/28 10:26:00;;;;;;;10.32;6.60;;;;;;;5.79;100.00;98893.25;5029907;28;20061;-88
2021/12/28 10:28:38;;;;;;;11.32;5.35;;;;;;;5.84;100.00;98881.94;5011353;28;20059;-88
2021/12/28 10:31:08;;;;;;;8.57;4.53;;;;;;;5.85;100.00;98883.66;5011612;28;20123;-87
2021/12/28 10:33:39;;;;;;;8.95;5.18;;;;;;;5.86;100.00;98878.44;5008250;28;20731;-87
2021/12/28 10:36:14;;;;;;;11.00;4.88;;;;;;;5.90;100.00;98876.63;5012403;28;20866;-87
2021/12/28 10:38:48;;;;;;;10.85;4.95;;;;;;;5.92;100.00;98875.72;5045979;28;20036;-88
2021/12/28 10:41:19;;;;;;;8.73;5.15;;;;;;;5.96;100.00;98868.75;5023322;28;20056;-88
2021/12/28 10:43:50;;;;;;;11.23;4.97;;;;;;;6.03;100.00;98867.75;5032170;28;20063;-88
2021/12/28 10:46:27;;;;;;;9.60;4.25;;;;;;;6.10;99.41;98860.69;5011245;28;20044;-88
2021/12/28 10:49:00;;;;;;;6.03;4.47;;;;;;;6.12;99.27;98858.94;5043860;28;20048;-87
2021/12/28 10:51:39;;;;;;;9.50;3.78;;;;;;;6.08;98.86;98858.13;5031854;28;20112;-86
2021/12/28 10:54:16;;;;;;;7.88;4.05;;;;;;;6.01;99.06;98858.28;5049394;28;20060;-87
2021/12/28 10:56:58;;;;;;;8.90;4.10;;;;;;;5.95;99.50;98847.09;5039207;28;20111;-87
2021/12/28 10:59:32;;;;;;;4.90;4.40;;;;;;;5.91;99.69;98850.63;5022059;28;20451;-87
2021/12/28 11:01:59;;;;;;;10.25;4.50;;;;;;;5.89;99.94;98841.16;5023080;28;20041;-87
2021/12/28 11:04:36;;;;;;;8.43;4.28;;;;;;;5.86;100.00;98842.06;5024261;28;20049;-87
2021/12/28 11:07:09;;;;;;;6.30;4.03;;;;;;;5.85;99.95;98839.50;5006531;28;20497;-86
2021/12/28 11:09:36;;;;;;;4.45;3.67;;;;;;;5.89;100.00;98844.63;5007151;28;20076;-87
2021/12/28 11:12:04;;;;;;;4.88;3.50;;;;;;;5.94;100.00;98841.91;5029019;28;20164;-87
2021/12/28 11:14:32;;;;;;;12.90;4.93;;;;;;;5.96;99.89;98835.81;5029868;28;20064;-86
2021/12/28 11:17:03;;;;;;;5.82;3.17;;;;;;;6.02;99.25;98839.22;5022579;28;20423;-88
2021/12/28 11:19:35;;;;;;;5.70;3.42;;;;;;;6.01;99.51;98832.31;5025930;28;20053;-87
2021/12/28 11:22:08;;;;;;;11.40;5.05;;;;;;;6.00;99.33;98827.97;5021499;28;20033;-87
2021/12/28 11:24:40;;;;;;;8.15;3.63;;;;;;;6.00;99.19;98823.66;5010769;28;20102;-87
2021/12/28 11:27:10;;;;;;;4.43;3.72;;;;;;;6.04;99.29;98819.28;5028956;28;20041;-87
2021/12/28 11:29:40;;;;;;;7.60;5.18;;;;;;;6.01;98.87;98809.78;5027268;28;20044;-87
2021/12/28 11:32:16;;;;;;;7.10;3.83;;;;;;;6.07;98.89;98806.22;5012225;28;20157;-87
2021/12/28 11:34:43;;;;;;;7.40;4.28;;;;;;;6.07;98.78;98804.44;5015454;28;20051;-87